Hillsboro, IN (47949)

12:53 AM EDT on August 27, 2016 (GMT -0400)
West Veedersburg | | Change Station

Elev 686 ft 40.12 °N, 87.27 °W | Updated 5 minutes ago

Clear
Clear
70.9 °F
Feels Like 70.9 °F
N
0.0
Wind Variable Wind from SSW

Today
High -- | Low -- °F
--% Chance of Precip.
Yesterday
High -- | Low -- °F
Precip. -- in
Pressure 30.06 in
Visibility 8.0 miles
Clouds Clear
Dew Point 70 °F
Humidity 98%
Rainfall 0.00 in
Snow Depth Not available.
7:12 AM 8:27 PM
Waning Crescent, 28% visible
METAR KLAF 270354Z AUTO 09006KT 8SM CLR 23/23 A3008 RMK AO2 SLP179 T02280228
Pressure 30.06 in
Visibility 8.0 miles
Clouds Clear
Dew Point 70 °F
Humidity 98%
Rainfall 0.00 in
Snow Depth Not available.
7:12 AM 8:27 PM
Waning Crescent, 28% visible
METAR KLAF 270354Z AUTO 09006KT 8SM CLR 23/23 A3008 RMK AO2 SLP179 T02280228

10-Day Weather Forecast

Almanac

Astronomy

Aug. 27, 2016 Rise Set
Actual Time
Civil Twilight
Nautical Twilight
Astronomical Twilight
Moon
Length of Visible Light
Length of Day
Tomorrow will be .
, % of the Moon is Illuminated

Today's Extremes

State Highs State Lows

Community

WunderPhotos

Upload Photos

1,935,299 photos uploaded!

WunderBlog® & News

Nearby

Air Quality

  Air Quality AQ Index Pollutant
Not available.

Snow Depth

Station Depth Elevation

Earthquake Activity

City Distance Mag. Time & Date
Minimum magnitude displayed is 2.5.

Coastal Water Temperatures

Place Temperature

Stations

Nearby Weather Stations

Station Location Temp. Windchill Dew Point Humidity Wind Precip. Elev Updated Type
                   

Watches & Warnings

There are currently no watches in effect.